createdAt,value
2019-06-23T00:00:30.261Z,978.70
2019-06-23T00:01:30.149Z,978.71
2019-06-23T00:02:30.075Z,978.74
2019-06-23T00:03:37.395Z,978.67
2019-06-23T00:04:29.923Z,978.71
2019-06-23T00:05:29.849Z,978.69
2019-06-23T00:06:29.777Z,978.69
2019-06-23T00:07:29.715Z,978.74
2019-06-23T00:08:29.623Z,978.75
2019-06-23T00:09:29.551Z,978.76
2019-06-23T00:10:29.471Z,978.79
2019-06-23T00:11:29.399Z,978.76
2019-06-23T00:12:29.319Z,978.82
2019-06-23T00:13:29.242Z,978.79
2019-06-23T00:14:29.169Z,978.81
2019-06-23T00:15:29.094Z,978.80
2019-06-23T00:16:29.013Z,978.80
2019-06-23T00:17:28.945Z,978.82
2019-06-23T00:18:28.869Z,978.86
2019-06-23T00:19:28.794Z,978.83
2019-06-23T00:20:28.716Z,978.82
2019-06-23T00:21:28.641Z,978.81
2019-06-23T00:22:28.566Z,978.82
2019-06-23T00:23:28.489Z,978.82
2019-06-23T00:24:28.416Z,978.79
2019-06-23T00:25:28.344Z,978.80
2019-06-23T00:26:28.270Z,978.89
2019-06-23T00:27:28.187Z,978.90
2019-06-23T00:28:28.111Z,978.88
2019-06-23T00:29:28.037Z,978.91
2019-06-23T00:30:27.963Z,978.92
2019-06-23T00:31:27.896Z,978.89
2019-06-23T00:32:27.808Z,978.89
2019-06-23T00:33:27.738Z,978.88
2019-06-23T00:34:27.660Z,978.88
2019-06-23T00:35:27.589Z,978.81
2019-06-23T00:36:27.518Z,978.78
2019-06-23T00:37:27.435Z,978.74
2019-06-23T00:38:27.354Z,978.77
2019-06-23T00:39:27.280Z,978.77
2019-06-23T00:40:27.212Z,978.76
2019-06-23T00:41:27.130Z,978.74
2019-06-23T00:42:27.074Z,978.72
2019-06-23T00:43:26.975Z,978.67
2019-06-23T00:44:26.901Z,978.70
2019-06-23T00:45:26.830Z,978.68
2019-06-23T00:46:26.753Z,978.69
2019-06-23T00:47:26.678Z,978.67
2019-06-23T00:48:26.608Z,978.70
2019-06-23T00:49:26.524Z,978.72
2019-06-23T00:50:26.452Z,978.73
2019-06-23T00:51:26.380Z,978.75
2019-06-23T00:52:26.340Z,978.76
2019-06-23T00:53:26.220Z,978.74
2019-06-23T00:54:26.148Z,978.76
2019-06-23T00:55:26.084Z,978.75
2019-06-23T00:56:25.997Z,978.72
2019-06-23T00:57:25.923Z,978.71
2019-06-23T00:58:25.846Z,978.74
2019-06-23T00:59:25.773Z,978.77
2019-06-23T01:00:25.695Z,978.77
2019-06-23T01:01:25.620Z,978.77
2019-06-23T01:02:25.542Z,978.73
2019-06-23T01:03:25.467Z,978.73
2019-06-23T01:04:25.407Z,978.72
2019-06-23T01:05:25.316Z,978.75
2019-06-23T01:06:25.234Z,978.71
2019-06-23T01:07:25.165Z,978.70
2019-06-23T01:08:25.089Z,978.72
2019-06-23T01:09:25.023Z,978.73
2019-06-23T01:10:24.939Z,978.69
2019-06-23T01:11:24.861Z,978.73
2019-06-23T01:12:24.786Z,978.77
2019-06-23T01:13:24.710Z,978.75
2019-06-23T01:14:24.635Z,978.75
2019-06-23T01:15:24.560Z,978.76
2019-06-23T01:16:24.483Z,978.76
2019-06-23T01:17:24.408Z,978.74
2019-06-23T01:18:24.332Z,978.73
2019-06-23T01:19:24.256Z,978.70
2019-06-23T01:20:24.176Z,978.69
2019-06-23T01:21:24.104Z,978.70
2019-06-23T01:22:24.032Z,978.67
2019-06-23T01:23:23.951Z,978.69
2019-06-23T01:24:23.876Z,978.66
2019-06-23T01:25:23.800Z,978.67
2019-06-23T01:26:23.727Z,978.67
2019-06-23T01:27:23.653Z,978.65
2019-06-23T01:28:23.573Z,978.69
2019-06-23T01:29:23.505Z,978.67
2019-06-23T01:30:23.420Z,978.75
2019-06-23T01:31:23.349Z,978.75
2019-06-23T01:32:23.268Z,978.77
2019-06-23T01:33:23.209Z,978.76
2019-06-23T01:34:24.945Z,978.77
2019-06-23T01:35:23.042Z,978.82
2019-06-23T01:36:22.966Z,978.77
2019-06-23T01:37:22.888Z,978.79
2019-06-23T01:38:22.812Z,978.83
2019-06-23T01:39:22.741Z,978.84
2019-06-23T01:40:22.661Z,978.79
2019-06-23T01:41:22.594Z,978.84
2019-06-23T01:42:22.508Z,978.87
2019-06-23T01:43:22.433Z,978.85
2019-06-23T01:44:22.355Z,978.87
2019-06-23T01:45:22.279Z,978.86
2019-06-23T01:46:22.207Z,978.82
2019-06-23T01:47:22.177Z,978.86
2019-06-23T01:48:22.057Z,978.86
2019-06-23T01:49:21.975Z,978.89
2019-06-23T01:50:21.900Z,978.86
2019-06-23T01:51:21.825Z,978.91
2019-06-23T01:52:21.745Z,978.90
2019-06-23T01:53:21.672Z,978.93
2019-06-23T01:54:21.593Z,978.98
2019-06-23T01:55:21.522Z,978.96
2019-06-23T01:56:21.507Z,979.00
2019-06-23T01:57:21.367Z,978.98
2019-06-23T01:58:21.291Z,979.02
2019-06-23T01:59:21.218Z,979.06
2019-06-23T02:00:21.140Z,979.06
2019-06-23T02:01:21.063Z,979.04
2019-06-23T02:02:20.987Z,979.05
2019-06-23T02:03:20.912Z,979.03
2019-06-23T02:04:20.835Z,979.02
2019-06-23T02:05:20.754Z,979.03
2019-06-23T02:06:20.679Z,979.02
2019-06-23T02:07:20.619Z,979.06
2019-06-23T02:08:20.533Z,979.07
2019-06-23T02:09:20.455Z,979.07
2019-06-23T02:10:20.377Z,979.03
2019-06-23T02:11:20.305Z,979.07
2019-06-23T02:12:20.226Z,979.06
2019-06-23T02:13:20.151Z,979.08
2019-06-23T02:14:20.074Z,979.09
2019-06-23T02:15:19.999Z,979.13
2019-06-23T02:16:19.933Z,979.18
2019-06-23T02:17:19.849Z,979.22
2019-06-23T02:18:19.778Z,979.19
2019-06-23T02:19:19.695Z,979.22
2019-06-23T02:20:19.633Z,979.21
2019-06-23T02:21:19.546Z,979.19
2019-06-23T02:22:19.472Z,979.20
2019-06-23T02:23:20.637Z,979.16
2019-06-23T02:24:19.411Z,979.14
2019-06-23T02:25:19.238Z,979.19
2019-06-23T02:26:19.173Z,979.18
2019-06-23T02:27:19.087Z,979.16
2019-06-23T02:28:19.013Z,979.15
2019-06-23T02:29:18.938Z,979.10
2019-06-23T02:30:18.858Z,979.10
2019-06-23T02:31:18.787Z,979.09
2019-06-23T02:32:18.704Z,979.10
2019-06-23T02:33:18.628Z,979.12
2019-06-23T02:34:18.554Z,979.06
2019-06-23T02:35:18.486Z,979.07
2019-06-23T02:36:18.402Z,979.09
2019-06-23T02:37:18.324Z,979.09
2019-06-23T02:38:18.254Z,979.07
2019-06-23T02:39:18.176Z,979.06
2019-06-23T02:40:18.098Z,979.08
2019-06-23T02:41:18.016Z,979.09
2019-06-23T02:42:17.951Z,979.11
2019-06-23T02:43:17.913Z,979.11
2019-06-23T02:44:17.793Z,979.10
2019-06-23T02:45:17.717Z,979.14
2019-06-23T02:46:17.642Z,979.09
2019-06-23T02:47:17.562Z,979.07
2019-06-23T02:48:17.492Z,979.05
2019-06-23T02:49:17.409Z,978.98
2019-06-23T02:50:17.337Z,979.01
2019-06-23T02:51:17.262Z,978.97
2019-06-23T02:52:17.182Z,978.96
2019-06-23T02:53:17.105Z,978.91
2019-06-23T02:54:17.041Z,978.96
2019-06-23T02:55:16.951Z,978.94
2019-06-23T02:56:16.877Z,978.91
2019-06-23T02:57:16.801Z,978.93
2019-06-23T02:58:16.727Z,978.94
2019-06-23T02:59:16.643Z,978.94
2019-06-23T03:00:16.571Z,978.94
2019-06-23T03:01:16.493Z,978.90
2019-06-23T03:02:16.420Z,978.90
2019-06-23T03:03:16.341Z,978.96
2019-06-23T03:04:16.268Z,978.93
2019-06-23T03:05:19.086Z,978.97
2019-06-23T03:06:16.119Z,978.93
2019-06-23T03:07:16.040Z,979.00
2019-06-23T03:08:15.963Z,978.93
2019-06-23T03:09:15.921Z,978.94
2019-06-23T03:10:15.811Z,978.97
2019-06-23T03:11:15.736Z,979.01
2019-06-23T03:12:15.658Z,978.99
2019-06-23T03:13:15.580Z,979.01
2019-06-23T03:14:15.509Z,978.98
2019-06-23T03:15:15.432Z,979.01
2019-06-23T03:16:15.353Z,979.02
2019-06-23T03:17:15.279Z,978.99
2019-06-23T03:18:15.201Z,979.01
2019-06-23T03:19:15.122Z,979.01
2019-06-23T03:20:15.051Z,978.99
2019-06-23T03:21:14.973Z,978.98
2019-06-23T03:22:14.897Z,978.98
2019-06-23T03:23:14.821Z,979.01
2019-06-23T03:24:14.741Z,979.05
2019-06-23T03:25:14.669Z,978.99
2019-06-23T03:26:14.600Z,979.02
2019-06-23T03:27:14.520Z,979.00
2019-06-23T03:28:14.438Z,979.02
2019-06-23T03:29:14.371Z,979.00
2019-06-23T03:30:14.325Z,979.01
2019-06-23T03:31:14.215Z,978.98
2019-06-23T03:32:14.138Z,979.02
2019-06-23T03:33:14.065Z,979.02
2019-06-23T03:34:13.986Z,979.04
2019-06-23T03:35:13.912Z,979.03
2019-06-23T03:36:13.835Z,979.05
2019-06-23T03:37:13.757Z,979.06
2019-06-23T03:38:13.680Z,979.05
2019-06-23T03:39:13.663Z,979.07
2019-06-23T03:40:13.529Z,979.06
2019-06-23T03:41:13.453Z,979.08
2019-06-23T03:42:13.378Z,979.09
2019-06-23T03:43:13.308Z,979.07
2019-06-23T03:44:13.225Z,979.10
2019-06-23T03:45:13.156Z,979.08
2019-06-23T03:46:13.105Z,979.11
2019-06-23T03:47:12.996Z,979.12
2019-06-23T03:48:12.922Z,979.11
2019-06-23T03:49:12.846Z,979.10
2019-06-23T03:50:12.767Z,979.12
2019-06-23T03:51:12.694Z,979.11
2019-06-23T03:52:12.618Z,979.10
2019-06-23T03:53:12.544Z,979.13
2019-06-23T03:54:12.467Z,979.15
2019-06-23T03:55:12.413Z,979.17
2019-06-23T03:56:12.316Z,979.16
2019-06-23T03:57:12.235Z,979.16
2019-06-23T03:58:12.161Z,979.15
2019-06-23T03:59:12.085Z,979.08
2019-06-23T04:00:12.018Z,979.11
2019-06-23T04:01:11.931Z,979.08
2019-06-23T04:02:11.859Z,979.04
2019-06-23T04:03:11.783Z,979.02
2019-06-23T04:04:11.714Z,979.04
2019-06-23T04:05:11.627Z,979.02
2019-06-23T04:06:11.554Z,979.07
2019-06-23T04:07:11.478Z,979.06
2019-06-23T04:08:11.399Z,979.13
2019-06-23T04:09:11.430Z,979.14
2019-06-23T04:10:11.251Z,979.16
2019-06-23T04:11:11.168Z,979.17
2019-06-23T04:12:11.099Z,979.18
2019-06-23T04:13:11.020Z,979.22
2019-06-23T04:14:10.950Z,979.27
2019-06-23T04:15:10.867Z,979.28
2019-06-23T04:16:10.798Z,979.30
2019-06-23T04:17:10.714Z,979.31
2019-06-23T04:18:10.656Z,979.32
2019-06-23T04:19:10.565Z,979.31
2019-06-23T04:20:10.485Z,979.34
2019-06-23T04:21:10.412Z,979.35
2019-06-23T04:23:42.364Z,979.31
2019-06-23T04:24:42.274Z,979.32
2019-06-23T04:25:42.196Z,979.29
2019-06-23T04:26:42.125Z,979.30
2019-06-23T04:27:42.044Z,979.31
2019-06-23T04:28:41.970Z,979.33
2019-06-23T04:29:41.905Z,979.37
2019-06-23T04:30:41.817Z,979.41
2019-06-23T04:31:41.743Z,979.39
2019-06-23T04:32:41.667Z,979.44
2019-06-23T04:33:41.589Z,979.41
2019-06-23T04:34:41.513Z,979.42
2019-06-23T04:35:41.442Z,979.38
2019-06-23T04:36:41.357Z,979.41
2019-06-23T04:37:41.292Z,979.43
2019-06-23T04:38:41.212Z,979.44
2019-06-23T04:39:41.135Z,979.44
2019-06-23T04:40:41.053Z,979.43
2019-06-23T04:41:40.980Z,979.43
2019-06-23T04:42:40.907Z,979.40
2019-06-23T04:43:40.828Z,979.44
2019-06-23T04:44:40.792Z,979.42
2019-06-23T04:45:40.675Z,979.40
2019-06-23T04:46:40.604Z,979.43
2019-06-23T04:47:40.528Z,979.40
2019-06-23T04:48:40.450Z,979.42
2019-06-23T04:49:40.376Z,979.39
2019-06-23T04:50:40.341Z,979.36
2019-06-23T04:51:40.223Z,979.40
2019-06-23T04:52:40.159Z,979.37
2019-06-23T04:53:40.079Z,979.43
2019-06-23T04:54:39.996Z,979.42
2019-06-23T04:55:39.918Z,979.41
2019-06-23T04:56:39.846Z,979.45
2019-06-23T04:57:39.766Z,979.45
2019-06-23T04:58:39.691Z,979.46
2019-06-23T04:59:39.614Z,979.41
2019-06-23T05:00:39.540Z,979.45
2019-06-23T05:01:39.488Z,979.47
2019-06-23T05:02:39.387Z,979.44
2019-06-23T05:03:39.314Z,979.49
2019-06-23T05:04:39.236Z,979.46
2019-06-23T05:05:39.156Z,979.50
2019-06-23T05:06:39.092Z,979.50
2019-06-23T05:07:39.004Z,979.55
2019-06-23T05:08:38.933Z,979.54
2019-06-23T05:09:38.855Z,979.56
2019-06-23T05:10:38.794Z,979.53
2019-06-23T05:11:38.707Z,979.53
2019-06-23T05:12:38.629Z,979.55
2019-06-23T05:13:38.549Z,979.55
2019-06-23T05:14:38.478Z,979.58
2019-06-23T05:15:38.403Z,979.57
2019-06-23T05:16:38.334Z,979.58
2019-06-23T05:17:38.251Z,979.58
2019-06-23T05:18:38.175Z,979.57
2019-06-23T05:19:38.095Z,979.61
2019-06-23T05:20:38.024Z,979.61
2019-06-23T05:21:37.955Z,979.61
2019-06-23T05:22:37.931Z,979.65
2019-06-23T05:23:37.796Z,979.65
2019-06-23T05:24:37.719Z,979.64
2019-06-23T05:25:37.645Z,979.65
2019-06-23T05:26:40.242Z,979.62
2019-06-23T05:27:37.490Z,979.64
2019-06-23T05:28:37.421Z,979.64
2019-06-23T05:29:37.344Z,979.67
2019-06-23T05:30:37.260Z,979.69
2019-06-23T05:31:37.193Z,979.69
2019-06-23T05:32:37.108Z,979.69
2019-06-23T05:33:37.038Z,979.73
2019-06-23T05:34:36.959Z,979.78
2019-06-23T05:35:36.885Z,979.76
2019-06-23T05:36:40.274Z,979.78
2019-06-23T05:37:36.739Z,979.80
2019-06-23T05:38:36.659Z,979.76
2019-06-23T05:39:36.580Z,979.85
2019-06-23T05:40:36.575Z,979.88
2019-06-23T05:41:36.433Z,979.83
2019-06-23T05:42:36.358Z,979.87
2019-06-23T05:43:36.285Z,979.85
2019-06-23T05:44:36.205Z,979.92
2019-06-23T05:45:36.132Z,979.91
2019-06-23T05:46:36.056Z,979.87
2019-06-23T05:47:35.977Z,979.83
2019-06-23T05:48:35.905Z,979.90
2019-06-23T05:49:35.834Z,979.90
2019-06-23T05:50:35.753Z,979.92
2019-06-23T05:51:35.680Z,979.87
2019-06-23T05:52:35.604Z,979.88
2019-06-23T05:53:35.529Z,979.88
2019-06-23T05:54:35.444Z,979.89
2019-06-23T05:55:35.375Z,979.93
2019-06-23T05:56:35.302Z,979.92
2019-06-23T05:57:35.219Z,979.88
2019-06-23T05:58:45.952Z,979.93
2019-06-23T05:59:35.072Z,979.87
2019-06-23T06:00:34.996Z,979.93
2019-06-23T06:01:34.919Z,979.94
2019-06-23T06:02:34.842Z,979.95
2019-06-23T06:03:34.834Z,979.97
2019-06-23T06:04:34.690Z,979.98
2019-06-23T06:05:34.615Z,980.03
2019-06-23T06:06:34.542Z,979.98
2019-06-23T06:07:34.465Z,979.95
2019-06-23T06:08:34.390Z,979.94
2019-06-23T06:09:34.311Z,979.93
2019-06-23T06:10:34.255Z,979.98
2019-06-23T06:11:34.164Z,979.98
2019-06-23T06:12:34.093Z,979.96
2019-06-23T06:13:34.012Z,979.99
2019-06-23T06:14:33.938Z,979.97
2019-06-23T06:15:33.862Z,980.01
2019-06-23T06:16:33.786Z,980.06
2019-06-23T06:17:33.709Z,980.05
2019-06-23T06:18:33.656Z,980.04
2019-06-23T06:19:33.573Z,980.09
2019-06-23T06:20:33.484Z,980.07
2019-06-23T06:21:33.428Z,980.07
2019-06-23T06:22:33.333Z,980.07
2019-06-23T06:23:33.254Z,980.07
2019-06-23T06:24:33.183Z,980.06
2019-06-23T06:25:33.100Z,980.05
2019-06-23T06:26:33.027Z,980.04
2019-06-23T06:27:32.951Z,980.04
2019-06-23T06:28:32.887Z,980.06
2019-06-23T06:29:32.809Z,980.06
2019-06-23T06:30:32.773Z,980.11
2019-06-23T06:31:32.654Z,980.09
2019-06-23T06:32:32.578Z,980.12
2019-06-23T06:33:32.722Z,980.13
2019-06-23T06:34:32.428Z,980.15
2019-06-23T06:35:32.352Z,980.15
2019-06-23T06:36:32.284Z,980.15
2019-06-23T06:37:32.199Z,980.12
2019-06-23T06:38:32.121Z,980.11
2019-06-23T06:39:32.050Z,980.12
2019-06-23T06:40:31.977Z,980.11
2019-06-23T06:41:31.904Z,980.11
2019-06-23T06:42:31.824Z,980.13
2019-06-23T06:43:31.765Z,980.17
2019-06-23T06:44:31.676Z,980.17
2019-06-23T06:45:31.611Z,980.23
2019-06-23T06:46:31.525Z,980.23
2019-06-23T06:47:31.451Z,980.27
2019-06-23T06:48:31.373Z,980.25
2019-06-23T06:49:31.301Z,980.23
2019-06-23T06:50:31.224Z,980.22
2019-06-23T06:51:31.150Z,980.22
2019-06-23T06:52:31.079Z,980.22
2019-06-23T06:55:14.054Z,980.23
2019-06-23T06:56:13.950Z,980.25
2019-06-23T06:57:13.877Z,980.25
2019-06-23T06:58:13.805Z,980.25
2019-06-23T06:59:13.727Z,980.27
2019-06-23T07:00:13.679Z,980.27
2019-06-23T07:01:13.579Z,980.21
2019-06-23T07:02:13.502Z,980.24
2019-06-23T07:03:13.451Z,980.22
2019-06-23T07:04:13.349Z,980.29
2019-06-23T07:05:13.275Z,980.25
2019-06-23T07:06:13.204Z,980.26
2019-06-23T07:07:26.019Z,980.26
2019-06-23T07:08:13.052Z,980.29
2019-06-23T07:09:12.981Z,980.33
2019-06-23T07:10:12.899Z,980.32
2019-06-23T07:11:12.836Z,980.33
2019-06-23T07:12:12.750Z,980.36
2019-06-23T07:13:12.677Z,980.34
2019-06-23T07:14:12.601Z,980.31
2019-06-23T07:15:12.535Z,980.36
2019-06-23T07:16:12.519Z,980.33
2019-06-23T07:17:12.390Z,980.34
2019-06-23T07:18:12.302Z,980.30
2019-06-23T07:19:12.228Z,980.33
2019-06-23T07:20:12.156Z,980.35
2019-06-23T07:21:12.078Z,980.34
2019-06-23T07:22:12.007Z,980.33
2019-06-23T07:23:11.930Z,980.33
2019-06-23T07:24:11.863Z,980.32
2019-06-23T07:25:11.779Z,980.33
2019-06-23T07:26:11.713Z,980.37
2019-06-23T07:27:11.629Z,980.37
2019-06-23T07:28:11.558Z,980.35
2019-06-23T07:29:11.483Z,980.35
2019-06-23T07:30:11.408Z,980.36
2019-06-23T07:31:11.341Z,980.38
2019-06-23T07:32:11.261Z,980.43
2019-06-23T07:33:11.226Z,980.43
2019-06-23T07:34:11.108Z,980.41
2019-06-23T07:35:11.036Z,980.40
2019-06-23T07:36:10.967Z,980.40
2019-06-23T07:37:10.887Z,980.36
2019-06-23T07:38:10.811Z,980.40
2019-06-23T07:39:10.733Z,980.40
2019-06-23T07:40:10.661Z,980.43
2019-06-23T07:41:10.589Z,980.46
2019-06-23T07:42:10.540Z,980.45
2019-06-23T07:43:10.442Z,980.51
2019-06-23T07:45:55.939Z,980.50
2019-06-23T07:46:55.864Z,980.55
2019-06-23T07:49:04.654Z,980.54
2019-06-23T07:50:02.222Z,980.56
2019-06-23T07:52:08.132Z,980.56
2019-06-23T07:54:52.093Z,980.53
2019-06-23T07:55:52.045Z,980.53
2019-06-23T07:56:51.889Z,980.51
2019-06-23T07:57:51.807Z,980.55
2019-06-23T07:58:51.720Z,980.56
2019-06-23T07:59:51.644Z,980.52
2019-06-23T08:00:51.576Z,980.53
2019-06-23T08:01:51.495Z,980.53
2019-06-23T08:02:51.423Z,980.51
2019-06-23T08:03:51.347Z,980.53
2019-06-23T08:04:51.273Z,980.53
2019-06-23T08:05:51.192Z,980.57
2019-06-23T08:06:51.123Z,980.59
2019-06-23T08:07:58.699Z,980.60
2019-06-23T08:08:50.974Z,980.64
2019-06-23T08:09:50.906Z,980.65
2019-06-23T08:10:50.826Z,980.60
2019-06-23T08:11:50.761Z,980.60
2019-06-23T08:12:50.695Z,980.62
2019-06-23T08:13:50.606Z,980.63
2019-06-23T08:14:50.548Z,980.63
2019-06-23T08:16:05.240Z,980.67
2019-06-23T08:16:50.385Z,980.66
2019-06-23T08:17:50.457Z,980.65
2019-06-23T08:18:50.987Z,980.70
2019-06-23T08:19:50.322Z,980.64
2019-06-23T08:20:50.085Z,980.65
2019-06-23T08:21:50.013Z,980.64
2019-06-23T08:22:50.874Z,980.70
2019-06-23T08:23:49.861Z,980.69
2019-06-23T08:24:49.797Z,980.65
2019-06-23T08:25:49.716Z,980.64
2019-06-23T08:26:49.642Z,980.67
2019-06-23T08:27:49.570Z,980.65
2019-06-23T08:28:49.491Z,980.64
2019-06-23T08:29:49.425Z,980.66
2019-06-23T08:30:49.348Z,980.65
2019-06-23T08:31:49.275Z,980.68
2019-06-23T08:32:52.148Z,980.70
2019-06-23T08:33:49.134Z,980.68
2019-06-23T08:34:49.057Z,980.65
2019-06-23T08:35:48.976Z,980.66
2019-06-23T08:36:48.910Z,980.70
2019-06-23T08:37:48.831Z,980.72
2019-06-23T08:38:48.759Z,980.72
2019-06-23T08:39:48.685Z,980.73
2019-06-23T08:40:48.614Z,980.76
2019-06-23T08:41:48.536Z,980.77
2019-06-23T08:42:48.463Z,980.75
2019-06-23T08:43:48.401Z,980.70
2019-06-23T08:44:48.319Z,980.70
2019-06-23T08:45:48.243Z,980.75
2019-06-23T08:46:48.187Z,980.74
2019-06-23T08:47:48.088Z,980.77
2019-06-23T08:48:48.028Z,980.77
2019-06-23T08:49:47.950Z,980.79
2019-06-23T08:50:47.874Z,980.75
2019-06-23T08:51:47.800Z,980.81
2019-06-23T08:52:47.732Z,980.76
2019-06-23T08:53:47.655Z,980.77
2019-06-23T08:54:47.583Z,980.77
2019-06-23T08:55:47.521Z,980.77
2019-06-23T08:56:47.430Z,980.83
2019-06-23T08:57:47.365Z,980.79
2019-06-23T08:58:47.299Z,980.83
2019-06-23T08:59:47.231Z,980.81
2019-06-23T09:00:47.138Z,980.82
2019-06-23T09:01:47.130Z,980.79
2019-06-23T09:02:46.996Z,980.79
2019-06-23T09:03:46.921Z,980.85
2019-06-23T09:04:46.874Z,980.82
2019-06-23T09:05:46.820Z,980.84
2019-06-23T09:06:46.695Z,980.83
2019-06-23T09:07:46.650Z,980.83
2019-06-23T09:08:46.654Z,980.82
2019-06-23T09:09:46.482Z,980.83
2019-06-23T09:10:46.406Z,980.83
2019-06-23T09:11:46.333Z,980.82
2019-06-23T09:12:46.256Z,980.84
2019-06-23T09:13:46.186Z,980.84
2019-06-23T09:14:46.109Z,980.89
2019-06-23T09:15:46.037Z,980.89
2019-06-23T09:16:45.965Z,980.91
2019-06-23T09:17:45.892Z,980.94
2019-06-23T09:18:45.910Z,980.92
2019-06-23T09:19:45.752Z,980.91
2019-06-23T09:20:45.687Z,980.96
2019-06-23T09:21:45.597Z,980.96
2019-06-23T09:22:45.523Z,980.92
2019-06-23T09:23:45.489Z,980.93
2019-06-23T09:24:45.380Z,980.92
2019-06-23T09:25:45.310Z,980.90
2019-06-23T09:26:45.234Z,980.92
2019-06-23T09:27:45.161Z,980.89
2019-06-23T09:28:45.087Z,980.90
2019-06-23T09:29:45.009Z,980.92
2019-06-23T09:30:44.938Z,980.88
2019-06-23T09:31:44.856Z,980.93
2019-06-23T09:32:44.817Z,980.93
2019-06-23T09:33:44.716Z,980.94
2019-06-23T09:34:44.646Z,980.99
2019-06-23T09:35:44.610Z,981.04
2019-06-23T09:36:44.547Z,980.98
2019-06-23T09:37:44.428Z,981.02
2019-06-23T09:38:48.288Z,981.04
2019-06-23T09:39:44.286Z,981.05
2019-06-23T09:40:44.202Z,981.02
2019-06-23T09:41:44.131Z,980.97
2019-06-23T09:42:44.065Z,980.95
2019-06-23T09:43:43.979Z,980.88
2019-06-23T09:44:45.324Z,980.94
2019-06-23T09:45:43.836Z,980.89
2019-06-23T09:46:43.777Z,980.91
2019-06-23T09:47:43.686Z,980.93
2019-06-23T09:48:43.614Z,980.94
2019-06-23T09:49:43.633Z,980.92
2019-06-23T09:50:43.479Z,980.95
2019-06-23T09:51:43.397Z,980.94
2019-06-23T09:52:43.323Z,980.96
2019-06-23T09:53:43.255Z,980.99
2019-06-23T09:54:43.176Z,980.98
2019-06-23T09:55:43.128Z,980.96
2019-06-23T09:56:43.034Z,980.95
2019-06-23T09:57:42.990Z,980.98
2019-06-23T09:58:42.889Z,980.99
2019-06-23T09:59:42.812Z,980.97
2019-06-23T10:00:42.739Z,981.03
2019-06-23T10:01:42.670Z,981.03
2019-06-23T10:02:55.522Z,980.99
2019-06-23T10:03:42.524Z,981.01
2019-06-23T10:04:42.457Z,981.04
2019-06-23T10:05:42.380Z,981.03
2019-06-23T10:06:42.324Z,981.09
2019-06-23T10:07:42.228Z,981.06
2019-06-23T10:08:42.157Z,981.06
2019-06-23T10:09:42.083Z,981.09
2019-06-23T10:10:42.018Z,981.04
2019-06-23T10:11:41.969Z,981.09
2019-06-23T10:12:41.875Z,981.04
2019-06-23T10:13:41.791Z,981.08
2019-06-23T10:14:42.707Z,981.09
2019-06-23T10:15:41.655Z,981.08
2019-06-23T10:16:41.571Z,981.09
2019-06-23T10:17:41.505Z,981.09
2019-06-23T10:18:41.431Z,981.14
2019-06-23T10:19:41.368Z,981.11
2019-06-23T10:20:41.283Z,981.12
2019-06-23T10:21:41.212Z,981.19
2019-06-23T10:22:41.139Z,981.17
2019-06-23T10:23:41.067Z,981.14
2019-06-23T10:24:41.005Z,981.18
2019-06-23T10:25:40.922Z,981.13
2019-06-23T10:26:40.849Z,981.16
2019-06-23T10:27:40.778Z,981.16
2019-06-23T10:28:40.707Z,981.17
2019-06-23T10:29:40.632Z,981.14
2019-06-23T10:30:40.561Z,981.15
2019-06-23T10:31:40.549Z,981.16
2019-06-23T10:32:40.421Z,981.12
2019-06-23T10:33:40.349Z,981.16
2019-06-23T10:34:40.270Z,981.09
2019-06-23T10:35:40.199Z,981.18
2019-06-23T10:36:40.124Z,981.15
2019-06-23T10:37:40.053Z,981.14
2019-06-23T10:38:39.989Z,981.11
2019-06-23T10:39:39.960Z,981.11
2019-06-23T10:40:39.841Z,981.14
2019-06-23T10:41:41.873Z,981.07
2019-06-23T10:42:39.687Z,981.15
2019-06-23T10:43:39.620Z,981.16
2019-06-23T10:44:39.551Z,981.11
2019-06-23T10:45:39.472Z,981.12
2019-06-23T10:46:39.408Z,981.09
2019-06-23T10:47:39.329Z,981.06
2019-06-23T10:48:39.268Z,981.08
2019-06-23T10:49:39.257Z,981.01
2019-06-23T10:50:39.133Z,981.06
2019-06-23T10:51:39.076Z,981.02
2019-06-23T10:54:13.488Z,981.07
2019-06-23T10:55:13.470Z,981.02
2019-06-23T10:57:20.232Z,981.01
2019-06-23T10:58:20.119Z,981.05
2019-06-23T11:00:24.440Z,981.02
2019-06-23T11:01:32.031Z,981.02
2019-06-23T11:03:28.189Z,981.06
2019-06-23T11:04:28.106Z,981.03
2019-06-23T11:06:32.415Z,981.06
2019-06-23T11:07:32.346Z,981.07
2019-06-23T11:09:36.548Z,981.04
2019-06-23T11:10:36.088Z,981.07
2019-06-23T11:12:29.357Z,981.08
2019-06-23T11:13:29.270Z,981.09
2019-06-23T11:14:29.196Z,981.07
2019-06-23T11:15:29.128Z,981.08
2019-06-23T11:16:29.058Z,981.07
2019-06-23T11:17:28.978Z,981.06
2019-06-23T11:18:28.918Z,981.04
2019-06-23T11:19:28.842Z,981.08
2019-06-23T11:20:28.769Z,981.09
2019-06-23T11:21:28.689Z,981.13
2019-06-23T11:22:28.623Z,981.04
2019-06-23T11:23:28.541Z,981.04
2019-06-23T11:24:28.472Z,981.08
2019-06-23T11:25:28.395Z,981.07
2019-06-23T11:26:28.327Z,981.07
2019-06-23T11:27:28.261Z,981.08
2019-06-23T11:28:28.182Z,981.07
2019-06-23T11:29:28.111Z,981.01
2019-06-23T11:30:28.040Z,981.09
2019-06-23T11:31:27.969Z,981.07
2019-06-23T11:32:27.893Z,981.06
2019-06-23T11:33:27.823Z,981.03
2019-06-23T11:34:27.751Z,981.06
2019-06-23T11:35:27.676Z,981.08
2019-06-23T11:36:27.606Z,981.06
2019-06-23T11:37:27.550Z,981.08
2019-06-23T11:38:27.464Z,981.10
2019-06-23T11:39:27.392Z,981.06
2019-06-23T11:40:27.323Z,981.10
2019-06-23T11:41:27.247Z,981.04
2019-06-23T11:42:27.178Z,981.08
2019-06-23T11:43:27.107Z,981.05
2019-06-23T11:44:27.038Z,981.00
2019-06-23T11:45:26.957Z,981.04
2019-06-23T11:46:26.890Z,981.05
2019-06-23T11:47:26.807Z,981.07
2019-06-23T11:48:26.743Z,981.07
2019-06-23T11:49:26.672Z,981.07
2019-06-23T11:50:26.601Z,981.11
2019-06-23T11:51:26.529Z,981.14
2019-06-23T11:52:26.455Z,981.14
2019-06-23T11:53:26.385Z,981.12
2019-06-23T11:54:26.320Z,981.12
2019-06-23T11:55:26.237Z,981.07
2019-06-23T11:56:26.171Z,981.06
2019-06-23T11:57:26.095Z,981.05
2019-06-23T11:58:26.028Z,981.05
2019-06-23T11:59:25.960Z,981.06
2019-06-23T12:00:25.885Z,981.07
2019-06-23T12:01:25.808Z,981.06
2019-06-23T12:02:25.743Z,981.08
2019-06-23T12:03:25.669Z,981.05
2019-06-23T12:04:25.599Z,981.03
2019-06-23T12:05:25.524Z,981.12
2019-06-23T12:06:25.469Z,981.06
2019-06-23T12:07:25.767Z,981.09
2019-06-23T12:08:25.308Z,981.07
2019-06-23T12:09:25.243Z,981.10
2019-06-23T12:10:25.176Z,981.09
2019-06-23T12:11:25.098Z,981.06
2019-06-23T12:12:25.052Z,981.07
2019-06-23T12:13:24.964Z,981.06
2019-06-23T12:14:24.905Z,981.07
2019-06-23T12:15:24.816Z,981.03
2019-06-23T12:16:24.748Z,981.02
2019-06-23T12:17:24.672Z,981.04
2019-06-23T12:18:24.606Z,981.10
2019-06-23T12:19:24.534Z,981.12
2019-06-23T12:20:24.471Z,981.11
2019-06-23T12:21:24.396Z,981.11
2019-06-23T12:22:24.323Z,981.14
2019-06-23T12:23:24.259Z,981.19
2019-06-23T12:24:24.206Z,981.19
2019-06-23T12:25:24.116Z,981.21
2019-06-23T12:26:24.054Z,981.15
2019-06-23T12:27:23.995Z,981.16
2019-06-23T12:28:23.918Z,981.11
2019-06-23T12:29:23.854Z,981.05
2019-06-23T12:30:23.801Z,981.08
2019-06-23T12:31:23.729Z,981.12
2019-06-23T12:32:23.667Z,981.14
2019-06-23T12:33:23.602Z,981.21
2019-06-23T12:34:23.547Z,981.07
2019-06-23T12:35:23.486Z,981.14
2019-06-23T12:36:23.419Z,981.25
2019-06-23T12:37:23.364Z,981.20
2019-06-23T12:38:23.305Z,981.22
2019-06-23T12:39:23.238Z,981.23
2019-06-23T12:40:25.299Z,981.12
2019-06-23T12:41:24.791Z,981.18
2019-06-23T12:42:23.063Z,981.17
2019-06-23T12:43:23.014Z,981.17
2019-06-23T12:44:22.949Z,981.19